sensor_id;sensor_type;location;lat;lon;timestamp;pressure;altitude;pressure_sealevel;temperature;humidity
45731;BME280;31440;48.584;13.460;2023-01-31T00:02:48;97195.06;;;-0.04;100.00
45731;BME280;31440;48.584;13.460;2023-01-31T00:05:53;97197.66;;;0.03;100.00
45731;BME280;31440;48.584;13.460;2023-01-31T00:09:01;97195.94;;;-0.04;100.00
45731;BME280;31440;48.584;13.460;2023-01-31T00:12:06;97205.38;;;0.06;100.00
45731;BME280;31440;48.584;13.460;2023-01-31T00:15:11;97192.75;;;0.28;100.00
45731;BME280;31440;48.584;13.460;2023-01-31T00:18:16;97210.41;;;-0.04;100.00
45731;BME280;31440;48.584;13.460;2023-01-31T00:21:23;97219.78;;;-0.00;100.00
45731;BME280;31440;48.584;13.460;2023-01-31T00:24:28;97215.50;;;-0.07;100.00
45731;BME280;31440;48.584;13.460;2023-01-31T00:27:34;97166.09;;;-0.02;100.00
45731;BME280;31440;48.584;13.460;2023-01-31T00:30:39;97191.66;;;-0.02;100.00
45731;BME280;31440;48.584;13.460;2023-01-31T00:33:47;97200.19;;;-0.01;100.00
45731;BME280;31440;48.584;13.460;2023-01-31T00:36:52;97211.41;;;0.15;100.00
45731;BME280;31440;48.584;13.460;2023-01-31T00:39:57;97177.88;;;-0.20;100.00
45731;BME280;31440;48.584;13.460;2023-01-31T00:43:02;97203.59;;;-0.05;100.00
45731;BME280;31440;48.584;13.460;2023-01-31T00:46:06;97206.03;;;-0.14;100.00
45731;BME280;31440;48.584;13.460;2023-01-31T00:49:11;97211.34;;;0.07;100.00
45731;BME280;31440;48.584;13.460;2023-01-31T00:52:16;97212.16;;;0.04;100.00
45731;BME280;31440;48.584;13.460;2023-01-31T00:55:20;97215.47;;;-0.10;100.00
45731;BME280;31440;48.584;13.460;2023-01-31T00:58:25;97212.09;;;-0.06;100.00
45731;BME280;31440;48.584;13.460;2023-01-31T01:01:32;97209.53;;;-0.06;100.00
45731;BME280;31440;48.584;13.460;2023-01-31T01:04:36;97209.56;;;-0.00;100.00
45731;BME280;31440;48.584;13.460;2023-01-31T01:07:41;97210.38;;;-0.06;100.00
45731;BME280;31440;48.584;13.460;2023-01-31T01:10:46;97223.09;;;-0.13;100.00
45731;BME280;31440;48.584;13.460;2023-01-31T01:13:51;97225.72;;;-0.07;100.00
45731;BME280;31440;48.584;13.460;2023-01-31T01:16:57;97245.91;;;-0.33;100.00
45731;BME280;31440;48.584;13.460;2023-01-31T01:20:02;97211.94;;;-0.20;100.00
45731;BME280;31440;48.584;13.460;2023-01-31T01:23:07;97205.09;;;-0.26;100.00
45731;BME280;31440;48.584;13.460;2023-01-31T01:26:23;97209.22;;;-0.41;100.00
45731;BME280;31440;48.584;13.460;2023-01-31T01:29:28;97234.09;;;-0.22;100.00
45731;BME280;31440;48.584;13.460;2023-01-31T01:32:33;97207.78;;;-0.10;100.00
45731;BME280;31440;48.584;13.460;2023-01-31T01:35:37;97209.41;;;-0.21;100.00
45731;BME280;31440;48.584;13.460;2023-01-31T01:38:43;97209.50;;;-0.09;100.00
45731;BME280;31440;48.584;13.460;2023-01-31T01:41:48;97209.41;;;-0.18;100.00
45731;BME280;31440;48.584;13.460;2023-01-31T01:44:59;97191.56;;;-0.14;100.00
45731;BME280;31440;48.584;13.460;2023-01-31T01:48:05;97202.53;;;-0.27;100.00
45731;BME280;31440;48.584;13.460;2023-01-31T01:51:13;97207.03;;;0.01;100.00
45731;BME280;31440;48.584;13.460;2023-01-31T01:54:22;97223.16;;;-0.06;100.00
45731;BME280;31440;48.584;13.460;2023-01-31T01:57:35;97211.34;;;0.07;100.00
45731;BME280;31440;48.584;13.460;2023-01-31T02:00:41;97213.03;;;0.05;100.00
45731;BME280;31440;48.584;13.460;2023-01-31T02:03:46;97179.53;;;-0.26;100.00
45731;BME280;31440;48.584;13.460;2023-01-31T02:06:52;97208.63;;;-0.13;100.00
45731;BME280;31440;48.584;13.460;2023-01-31T02:10:05;97216.34;;;-0.08;100.00
45731;BME280;31440;48.584;13.460;2023-01-31T02:13:12;97211.22;;;-0.08;100.00
45731;BME280;31440;48.584;13.460;2023-01-31T02:16:20;97265.81;;;0.01;100.00
45731;BME280;31440;48.584;13.460;2023-01-31T02:19:34;97235.06;;;-0.09;100.00
45731;BME280;31440;48.584;13.460;2023-01-31T02:26:21;97227.44;;;-0.02;100.00
45731;BME280;31440;48.584;13.460;2023-01-31T02:29:44;97235.09;;;-0.06;100.00
45731;BME280;31440;48.584;13.460;2023-01-31T02:36:44;97246.25;;;0.05;100.00
45731;BME280;31440;48.584;13.460;2023-01-31T02:40:08;97251.31;;;0.00;100.00
45731;BME280;31440;48.584;13.460;2023-01-31T02:53:47;97248.88;;;0.11;100.00
45731;BME280;31440;48.584;13.460;2023-01-31T02:56:55;97246.25;;;0.03;100.00
45731;BME280;31440;48.584;13.460;2023-01-31T03:00:00;97238.53;;;-0.04;100.00
45731;BME280;31440;48.584;13.460;2023-01-31T03:03:07;97256.56;;;0.13;100.00
45731;BME280;31440;48.584;13.460;2023-01-31T03:16:41;97287.06;;;-0.07;100.00
45731;BME280;31440;48.584;13.460;2023-01-31T03:23:27;97293.25;;;0.15;100.00
45731;BME280;31440;48.584;13.460;2023-01-31T03:26:34;97290.59;;;0.07;100.00
45731;BME280;31440;48.584;13.460;2023-01-31T03:29:40;97289.66;;;-0.01;100.00
45731;BME280;31440;48.584;13.460;2023-01-31T03:32:52;97283.78;;;0.07;100.00
45731;BME280;31440;48.584;13.460;2023-01-31T03:36:09;97294.84;;;0.05;100.00
45731;BME280;31440;48.584;13.460;2023-01-31T03:39:37;97297.47;;;0.16;100.00
45731;BME280;31440;48.584;13.460;2023-01-31T03:42:56;97303.38;;;0.05;100.00
45731;BME280;31440;48.584;13.460;2023-01-31T03:46:08;97294.09;;;0.14;100.00
45731;BME280;31440;48.584;13.460;2023-01-31T03:49:17;97289.72;;;0.05;100.00
45731;BME280;31440;48.584;13.460;2023-01-31T03:52:29;97311.91;;;0.06;100.00
45731;BME280;31440;48.584;13.460;2023-01-31T03:55:57;97308.59;;;0.18;100.00
45731;BME280;31440;48.584;13.460;2023-01-31T03:59:10;97310.19;;;0.05;100.00
45731;BME280;31440;48.584;13.460;2023-01-31T04:05:23;97340.91;;;0.09;100.00
45731;BME280;31440;48.584;13.460;2023-01-31T04:08:32;97340.25;;;0.29;100.00
45731;BME280;31440;48.584;13.460;2023-01-31T04:11:41;97357.16;;;0.16;100.00
45731;BME280;31440;48.584;13.460;2023-01-31T04:14:46;97357.09;;;0.07;100.00
45731;BME280;31440;48.584;13.460;2023-01-31T04:17:51;97351.97;;;0.07;100.00
45731;BME280;31440;48.584;13.460;2023-01-31T04:20:55;97363.78;;;-0.04;100.00
45731;BME280;31440;48.584;13.460;2023-01-31T04:24:00;97374.25;;;0.20;100.00
45731;BME280;31440;48.584;13.460;2023-01-31T04:27:04;97360.56;;;0.15;100.00
45731;BME280;31440;48.584;13.460;2023-01-31T04:30:09;97345.75;;;-0.16;100.00
45731;BME280;31440;48.584;13.460;2023-01-31T04:33:14;97347.63;;;-0.00;100.00
45731;BME280;31440;48.584;13.460;2023-01-31T04:36:18;97354.56;;;0.10;100.00
45731;BME280;31440;48.584;13.460;2023-01-31T04:39:23;97362.97;;;-0.00;100.00
45731;BME280;31440;48.584;13.460;2023-01-31T04:42:28;97361.16;;;-0.10;100.00
45731;BME280;31440;48.584;13.460;2023-01-31T04:45:32;97358.69;;;-0.01;100.00
45731;BME280;31440;48.584;13.460;2023-01-31T04:48:37;97370.56;;;-0.08;100.00
45731;BME280;31440;48.584;13.460;2023-01-31T04:51:43;97368.13;;;0.04;100.00
45731;BME280;31440;48.584;13.460;2023-01-31T04:54:48;97379.25;;;0.08;100.00
45731;BME280;31440;48.584;13.460;2023-01-31T04:57:52;97374.97;;;0.05;100.00
45731;BME280;31440;48.584;13.460;2023-01-31T05:00:57;97381.84;;;0.09;100.00
45731;BME280;31440;48.584;13.460;2023-01-31T05:04:01;97397.75;;;-0.14;100.00
45731;BME280;31440;48.584;13.460;2023-01-31T05:07:06;97396.25;;;0.03;100.00
45731;BME280;31440;48.584;13.460;2023-01-31T05:10:12;97394.47;;;-0.03;100.00
45731;BME280;31440;48.584;13.460;2023-01-31T05:13:18;97360.94;;;-0.29;100.00
45731;BME280;31440;48.584;13.460;2023-01-31T05:16:23;97386.97;;;0.11;100.00
45731;BME280;31440;48.584;13.460;2023-01-31T05:19:28;97394.34;;;-0.13;100.00
45731;BME280;31440;48.584;13.460;2023-01-31T05:22:32;97397.22;;;0.14;100.00
45731;BME280;31440;48.584;13.460;2023-01-31T05:25:37;97402.03;;;-0.12;100.00
45731;BME280;31440;48.584;13.460;2023-01-31T05:28:41;97419.94;;;-0.10;100.00
45731;BME280;31440;48.584;13.460;2023-01-31T05:31:50;97413.16;;;-0.08;100.00
45731;BME280;31440;48.584;13.460;2023-01-31T05:34:55;97405.56;;;-0.04;100.00
45731;BME280;31440;48.584;13.460;2023-01-31T05:41:07;97404.75;;;0.03;100.00
45731;BME280;31440;48.584;13.460;2023-01-31T05:44:11;97398.75;;;-0.03;100.00
45731;BME280;31440;48.584;13.460;2023-01-31T05:47:16;97399.72;;;0.08;100.00
45731;BME280;31440;48.584;13.460;2023-01-31T05:50:20;97390.19;;;-0.02;100.00
45731;BME280;31440;48.584;13.460;2023-01-31T05:53:25;97401.34;;;0.03;100.00
45731;BME280;31440;48.584;13.460;2023-01-31T05:56:30;97407.97;;;-0.14;100.00
45731;BME280;31440;48.584;13.460;2023-01-31T05:59:35;97407.22;;;-0.07;100.00
45731;BME280;31440;48.584;13.460;2023-01-31T06:02:41;97413.16;;;-0.10;100.00
45731;BME280;31440;48.584;13.460;2023-01-31T06:05:45;97414.72;;;-0.19;100.00
45731;BME280;31440;48.584;13.460;2023-01-31T06:08:50;97401.94;;;-0.19;100.00
45731;BME280;31440;48.584;13.460;2023-01-31T06:11:54;97429.22;;;-0.18;100.00
45731;BME280;31440;48.584;13.460;2023-01-31T06:14:59;97426.69;;;-0.15;100.00
45731;BME280;31440;48.584;13.460;2023-01-31T06:18:04;97430.97;;;-0.14;100.00
45731;BME280;31440;48.584;13.460;2023-01-31T06:21:08;97429.22;;;-0.18;100.00
45731;BME280;31440;48.584;13.460;2023-01-31T06:24:15;97434.22;;;-0.28;100.00
45731;BME280;31440;48.584;13.460;2023-01-31T06:27:19;97431.97;;;-0.05;100.00
45731;BME280;31440;48.584;13.460;2023-01-31T06:30:24;97432.41;;;-0.35;100.00
45731;BME280;31440;48.584;13.460;2023-01-31T06:33:29;97436.16;;;-0.10;100.00
45731;BME280;31440;48.584;13.460;2023-01-31T06:36:50;97444.63;;;-0.14;100.00
45731;BME280;31440;48.584;13.460;2023-01-31T06:43:00;97467.50;;;-0.23;100.00
45731;BME280;31440;48.584;13.460;2023-01-31T06:46:04;97460.59;;;-0.30;100.00
45731;BME280;31440;48.584;13.460;2023-01-31T06:49:09;97484.50;;;-0.27;100.00
45731;BME280;31440;48.584;13.460;2023-01-31T06:52:13;97481.38;;;-0.06;100.00
45731;BME280;31440;48.584;13.460;2023-01-31T06:55:18;97479.66;;;-0.07;100.00
45731;BME280;31440;48.584;13.460;2023-01-31T06:58:23;97480.50;;;-0.08;100.00
45731;BME280;31440;48.584;13.460;2023-01-31T07:01:28;97490.66;;;-0.12;100.00
45731;BME280;31440;48.584;13.460;2023-01-31T07:04:33;97494.00;;;-0.16;100.00
45731;BME280;31440;48.584;13.460;2023-01-31T07:07:38;97486.31;;;-0.18;100.00
45731;BME280;31440;48.584;13.460;2023-01-31T07:10:42;97478.63;;;-0.18;100.00
45731;BME280;31440;48.584;13.460;2023-01-31T07:13:47;97497.50;;;-0.10;100.00
45731;BME280;31440;48.584;13.460;2023-01-31T07:16:53;97492.28;;;-0.17;100.00
45731;BME280;31440;48.584;13.460;2023-01-31T07:19:58;97498.25;;;-0.17;100.00
45731;BME280;31440;48.584;13.460;2023-01-31T07:23:02;97498.34;;;-0.09;100.00
45731;BME280;31440;48.584;13.460;2023-01-31T07:26:07;97506.88;;;-0.10;100.00
45731;BME280;31440;48.584;13.460;2023-01-31T07:29:12;97498.34;;;-0.09;100.00
45731;BME280;31440;48.584;13.460;2023-01-31T07:32:16;97503.34;;;-0.17;100.00
45731;BME280;31440;48.584;13.460;2023-01-31T07:35:22;97519.69;;;-0.07;100.00
45731;BME280;31440;48.584;13.460;2023-01-31T07:38:26;97507.84;;;-0.01;100.00
45731;BME280;31440;48.584;13.460;2023-01-31T07:41:31;97495.09;;;0.02;100.00
45731;BME280;31440;48.584;13.460;2023-01-31T07:44:35;97510.16;;;-0.17;100.00
45731;BME280;31440;48.584;13.460;2023-01-31T07:47:40;97516.31;;;-0.06;100.00
45731;BME280;31440;48.584;13.460;2023-01-31T07:50:46;97513.72;;;-0.08;100.00
45731;BME280;31440;48.584;13.460;2023-01-31T07:53:50;97523.03;;;-0.11;100.00
45731;BME280;31440;48.584;13.460;2023-01-31T07:56:55;97520.38;;;-0.17;100.00
45731;BME280;31440;48.584;13.460;2023-01-31T07:59:59;97527.44;;;0.00;100.00
45731;BME280;31440;48.584;13.460;2023-01-31T08:03:26;97536.66;;;-0.12;100.00
45731;BME280;31440;48.584;13.460;2023-01-31T08:06:38;97526.41;;;-0.14;100.00
45731;BME280;31440;48.584;13.460;2023-01-31T08:09:43;97520.38;;;-0.17;100.00
45731;BME280;31440;48.584;13.460;2023-01-31T08:12:50;97537.88;;;0.16;100.00
45731;BME280;31440;48.584;13.460;2023-01-31T08:15:55;97552.31;;;0.09;100.00
45731;BME280;31440;48.584;13.460;2023-01-31T08:18:59;97544.69;;;0.14;100.00
45731;BME280;31440;48.584;13.460;2023-01-31T08:22:04;97535.91;;;-0.05;100.00
45731;BME280;31440;48.584;13.460;2023-01-31T08:25:09;97537.72;;;0.03;100.00
45731;BME280;31440;48.584;13.460;2023-01-31T08:28:14;97539.56;;;0.15;100.00
45731;BME280;31440;48.584;13.460;2023-01-31T08:31:24;97546.19;;;-0.01;100.00
45731;BME280;31440;48.584;13.460;2023-01-31T08:37:35;97543.84;;;0.13;100.00
45731;BME280;31440;48.584;13.460;2023-01-31T08:40:39;97543.84;;;0.16;100.00
45731;BME280;31440;48.584;13.460;2023-01-31T08:43:44;97547.09;;;0.03;100.00
45731;BME280;31440;48.584;13.460;2023-01-31T08:47:00;97552.19;;;0.01;100.00
45731;BME280;31440;48.584;13.460;2023-01-31T08:50:06;97548.28;;;0.28;100.00
45731;BME280;31440;48.584;13.460;2023-01-31T08:53:25;97553.28;;;0.20;100.00
45731;BME280;31440;48.584;13.460;2023-01-31T08:56:30;97561.09;;;0.29;100.00
45731;BME280;31440;48.584;13.460;2023-01-31T09:02:41;97557.97;;;0.55;100.00
45731;BME280;31440;48.584;13.460;2023-01-31T09:05:45;97563.69;;;0.31;100.00
45731;BME280;31440;48.584;13.460;2023-01-31T09:08:50;97561.88;;;0.25;100.00
45731;BME280;31440;48.584;13.460;2023-01-31T09:11:54;97562.06;;;0.39;100.00
45731;BME280;31440;48.584;13.460;2023-01-31T09:14:59;97565.59;;;0.49;100.00
45731;BME280;31440;48.584;13.460;2023-01-31T09:21:12;97555.53;;;0.62;100.00
45731;BME280;31440;48.584;13.460;2023-01-31T09:24:17;97557.97;;;0.53;100.00
45731;BME280;31440;48.584;13.460;2023-01-31T09:27:21;97568.94;;;0.43;100.00
45731;BME280;31440;48.584;13.460;2023-01-31T09:30:26;97564.81;;;0.56;100.00
45731;BME280;31440;48.584;13.460;2023-01-31T09:33:32;97568.22;;;0.55;100.00
45731;BME280;31440;48.584;13.460;2023-01-31T09:36:37;97569.94;;;0.57;100.00
45731;BME280;31440;48.584;13.460;2023-01-31T09:39:41;97575.94;;;0.59;100.00
45731;BME280;31440;48.584;13.460;2023-01-31T09:42:46;97569.22;;;0.69;100.00
45731;BME280;31440;48.584;13.460;2023-01-31T09:45:55;97568.22;;;0.55;100.00
45731;BME280;31440;48.584;13.460;2023-01-31T09:49:04;97576.00;;;0.62;100.00
45731;BME280;31440;48.584;13.460;2023-01-31T09:52:10;97575.78;;;0.46;100.00
45731;BME280;31440;48.584;13.460;2023-01-31T09:55:28;97563.94;;;0.51;100.00
45731;BME280;31440;48.584;13.460;2023-01-31T09:58:54;97557.94;;;0.49;100.00
45731;BME280;31440;48.584;13.460;2023-01-31T10:08:37;97560.63;;;0.61;100.00
45731;BME280;31440;48.584;13.460;2023-01-31T10:11:54;97564.16;;;0.73;100.00
45731;BME280;31440;48.584;13.460;2023-01-31T10:15:05;97561.56;;;0.70;100.00
45731;BME280;31440;48.584;13.460;2023-01-31T10:18:18;97554.78;;;0.74;100.00
45731;BME280;31440;48.584;13.460;2023-01-31T10:21:35;97553.88;;;0.70;100.00
45731;BME280;31440;48.584;13.460;2023-01-31T10:24:46;97542.03;;;0.77;100.00
45731;BME280;31440;48.584;13.460;2023-01-31T10:28:07;97545.25;;;0.59;100.00
45731;BME280;31440;48.584;13.460;2023-01-31T10:34:32;97529.03;;;0.59;100.00
45731;BME280;31440;48.584;13.460;2023-01-31T10:37:43;97500.59;;;0.34;100.00
45731;BME280;31440;48.584;13.460;2023-01-31T10:40:59;97507.59;;;0.48;100.00
45731;BME280;31440;48.584;13.460;2023-01-31T10:44:20;97499.22;;;0.64;100.00
45731;BME280;31440;48.584;13.460;2023-01-31T10:47:32;97509.81;;;0.97;100.00
45731;BME280;31440;48.584;13.460;2023-01-31T10:51:18;97505.47;;;0.92;100.00
45731;BME280;31440;48.584;13.460;2023-01-31T10:57:38;97498.91;;;1.23;100.00
45731;BME280;31440;48.584;13.460;2023-01-31T11:03:54;97464.75;;;1.19;100.00
45731;BME280;31440;48.584;13.460;2023-01-31T11:07:00;97478.69;;;1.58;100.00
45731;BME280;31440;48.584;13.460;2023-01-31T11:10:29;97479.44;;;1.40;100.00
45731;BME280;31440;48.584;13.460;2023-01-31T11:13:35;97481.13;;;1.44;100.00
45731;BME280;31440;48.584;13.460;2023-01-31T11:16:40;97477.84;;;1.60;100.00
45731;BME280;31440;48.584;13.460;2023-01-31T11:22:52;97471.84;;;1.60;100.00
45731;BME280;31440;48.584;13.460;2023-01-31T11:25:58;97468.44;;;1.58;100.00
45731;BME280;31440;48.584;13.460;2023-01-31T11:29:09;97470.94;;;1.50;100.00
45731;BME280;31440;48.584;13.460;2023-01-31T11:32:22;97457.09;;;1.25;100.00
45731;BME280;31440;48.584;13.460;2023-01-31T11:35:32;97445.84;;;1.06;100.00
45731;BME280;31440;48.584;13.460;2023-01-31T11:38:37;97467.31;;;1.19;100.00
45731;BME280;31440;48.584;13.460;2023-01-31T11:41:42;97472.31;;;1.08;100.00
45731;BME280;31440;48.584;13.460;2023-01-31T11:45:01;97473.22;;;1.13;100.00
45731;BME280;31440;48.584;13.460;2023-01-31T11:51:25;97443.25;;;1.00;100.00
45731;BME280;31440;48.584;13.460;2023-01-31T11:54:35;97419.31;;;0.95;100.00
45731;BME280;31440;48.584;13.460;2023-01-31T11:57:40;97446.03;;;1.31;99.70
45731;BME280;31440;48.584;13.460;2023-01-31T12:00:57;97450.28;;;1.27;100.00
45731;BME280;31440;48.584;13.460;2023-01-31T12:04:03;97441.03;;;1.49;100.00
45731;BME280;31440;48.584;13.460;2023-01-31T12:07:26;97440.03;;;1.29;100.00
45731;BME280;31440;48.584;13.460;2023-01-31T12:10:40;97422.97;;;1.31;97.66
45731;BME280;31440;48.584;13.460;2023-01-31T12:13:53;97412.88;;;1.52;98.71
45731;BME280;31440;48.584;13.460;2023-01-31T12:17:03;97409.25;;;1.24;96.01
45731;BME280;31440;48.584;13.460;2023-01-31T12:23:58;97393.09;;;1.33;98.71
45731;BME280;31440;48.584;13.460;2023-01-31T12:27:41;97393.16;;;1.45;95.75
45731;BME280;31440;48.584;13.460;2023-01-31T12:38:00;97394.19;;;1.76;92.53
45731;BME280;31440;48.584;13.460;2023-01-31T12:41:31;97409.25;;;1.23;94.00
45731;BME280;31440;48.584;13.460;2023-01-31T12:44:49;97393.16;;;1.39;94.30
45731;BME280;31440;48.584;13.460;2023-01-31T12:48:18;97403.13;;;0.99;94.68
45731;BME280;31440;48.584;13.460;2023-01-31T12:51:46;97396.19;;;0.85;97.18
45731;BME280;31440;48.584;13.460;2023-01-31T12:55:09;97390.38;;;1.10;97.35
45731;BME280;31440;48.584;13.460;2023-01-31T12:58:41;97395.38;;;0.93;99.17
45731;BME280;31440;48.584;13.460;2023-01-31T13:01:58;97377.53;;;1.02;97.26
45731;BME280;31440;48.584;13.460;2023-01-31T13:05:32;97390.34;;;1.01;97.70
45731;BME280;31440;48.584;13.460;2023-01-31T13:09:03;97380.06;;;0.96;99.60
45731;BME280;31440;48.584;13.460;2023-01-31T13:18:35;97378.41;;;1.06;99.87
45731;BME280;31440;48.584;13.460;2023-01-31T13:21:45;97365.59;;;1.03;99.68
45731;BME280;31440;48.584;13.460;2023-01-31T13:24:58;97365.59;;;1.03;100.00
45731;BME280;31440;48.584;13.460;2023-01-31T13:28:43;97350.25;;;1.09;100.00
45731;BME280;31440;48.584;13.460;2023-01-31T13:32:17;97352.78;;;1.00;100.00
45731;BME280;31440;48.584;13.460;2023-01-31T13:35:28;97357.06;;;1.02;100.00
45731;BME280;31440;48.584;13.460;2023-01-31T13:38:38;97367.28;;;0.99;100.00
45731;BME280;31440;48.584;13.460;2023-01-31T13:41:44;97368.22;;;1.12;100.00
45731;BME280;31440;48.584;13.460;2023-01-31T13:44:49;97360.50;;;1.04;100.00
45731;BME280;31440;48.584;13.460;2023-01-31T13:48:04;97368.06;;;0.91;100.00
45731;BME280;31440;48.584;13.460;2023-01-31T13:51:22;97370.78;;;1.13;100.00
45731;BME280;31440;48.584;13.460;2023-01-31T13:57:42;97373.34;;;1.13;100.00
45731;BME280;31440;48.584;13.460;2023-01-31T14:01:00;97365.78;;;1.35;100.00
45731;BME280;31440;48.584;13.460;2023-01-31T14:16:41;97326.47;;;1.30;100.00
45731;BME280;31440;48.584;13.460;2023-01-31T14:30:06;97317.06;;;1.27;100.00
45731;BME280;31440;48.584;13.460;2023-01-31T14:37:10;97307.66;;;1.20;100.00
45731;BME280;31440;48.584;13.460;2023-01-31T14:50:16;97288.91;;;1.30;98.80
45731;BME280;31440;48.584;13.460;2023-01-31T14:57:14;97299.09;;;1.17;99.69
45731;BME280;31440;48.584;13.460;2023-01-31T15:00:37;97299.94;;;1.17;100.00
45731;BME280;31440;48.584;13.460;2023-01-31T15:03:54;97279.38;;;1.03;100.00
45731;BME280;31440;48.584;13.460;2023-01-31T15:07:02;97292.28;;;1.25;99.02
45731;BME280;31440;48.584;13.460;2023-01-31T15:13:49;97306.69;;;1.06;99.01
45731;BME280;31440;48.584;13.460;2023-01-31T15:17:00;97309.34;;;1.20;96.35
45731;BME280;31440;48.584;13.460;2023-01-31T15:20:17;97316.97;;;1.09;98.71
45731;BME280;31440;48.584;13.460;2023-01-31T15:23:27;97258.81;;;0.85;98.26
45731;BME280;31440;48.584;13.460;2023-01-31T15:33:18;97285.41;;;1.14;97.18
45731;BME280;31440;48.584;13.460;2023-01-31T15:36:32;97292.28;;;1.20;97.83
45731;BME280;31440;48.584;13.460;2023-01-31T15:39:45;97299.06;;;1.13;98.14
45731;BME280;31440;48.584;13.460;2023-01-31T15:42:53;97302.41;;;1.05;97.90
45731;BME280;31440;48.584;13.460;2023-01-31T15:45:58;97324.63;;;1.07;99.23
45731;BME280;31440;48.584;13.460;2023-01-31T15:55:48;97332.22;;;0.94;100.00
45731;BME280;31440;48.584;13.460;2023-01-31T15:58:55;97334.81;;;0.95;98.41
45731;BME280;31440;48.584;13.460;2023-01-31T16:02:01;97304.97;;;1.05;98.51
45731;BME280;31440;48.584;13.460;2023-01-31T16:05:07;97295.53;;;0.95;98.55
45731;BME280;31440;48.584;13.460;2023-01-31T16:11:32;97269.09;;;0.97;100.00
45731;BME280;31440;48.584;13.460;2023-01-31T16:14:37;97315.22;;;1.05;100.00
45731;BME280;31440;48.584;13.460;2023-01-31T16:17:43;97310.09;;;1.06;100.00
45731;BME280;31440;48.584;13.460;2023-01-31T16:20:50;97296.31;;;0.80;100.00
45731;BME280;31440;48.584;13.460;2023-01-31T16:24:16;97288.69;;;0.91;100.00
45731;BME280;31440;48.584;13.460;2023-01-31T16:27:21;97269.88;;;0.84;100.00
45731;BME280;31440;48.584;13.460;2023-01-31T16:30:26;97261.34;;;0.82;100.00
45731;BME280;31440;48.584;13.460;2023-01-31T16:33:31;97268.06;;;0.66;100.00
45731;BME280;31440;48.584;13.460;2023-01-31T16:37:05;97279.16;;;0.65;100.00
45731;BME280;31440;48.584;13.460;2023-01-31T16:43:22;97292.78;;;0.69;100.00
45731;BME280;31440;48.584;13.460;2023-01-31T16:46:41;97289.34;;;0.62;100.00
45731;BME280;31440;48.584;13.460;2023-01-31T16:49:48;97291.16;;;0.75;100.00
45731;BME280;31440;48.584;13.460;2023-01-31T16:56:31;97276.69;;;0.81;100.00
45731;BME280;31440;48.584;13.460;2023-01-31T16:59:42;97283.31;;;0.50;100.00
45731;BME280;31440;48.584;13.460;2023-01-31T17:05:54;97306.59;;;0.85;100.00
45731;BME280;31440;48.584;13.460;2023-01-31T17:08:59;97303.09;;;0.76;100.00
45731;BME280;31440;48.584;13.460;2023-01-31T17:12:04;97291.13;;;0.72;100.00
45731;BME280;31440;48.584;13.460;2023-01-31T17:15:14;97298.03;;;0.81;100.00
45731;BME280;31440;48.584;13.460;2023-01-31T17:18:19;97294.75;;;1.06;100.00
45731;BME280;31440;48.584;13.460;2023-01-31T17:24:29;97308.41;;;1.07;100.00
45731;BME280;31440;48.584;13.460;2023-01-31T17:27:34;97315.97;;;0.84;100.00
45731;BME280;31440;48.584;13.460;2023-01-31T17:30:40;97311.59;;;0.68;100.00
45731;BME280;31440;48.584;13.460;2023-01-31T17:33:46;97309.03;;;0.71;100.00
45731;BME280;31440;48.584;13.460;2023-01-31T17:36:51;97302.31;;;0.84;100.00
45731;BME280;31440;48.584;13.460;2023-01-31T17:39:56;97301.69;;;1.29;100.00
45731;BME280;31440;48.584;13.460;2023-01-31T17:43:02;97305.50;;;0.55;100.00
45731;BME280;31440;48.584;13.460;2023-01-31T17:46:10;97294.53;;;0.73;100.00
45731;BME280;31440;48.584;13.460;2023-01-31T17:49:15;97303.91;;;0.69;100.00
45731;BME280;31440;48.584;13.460;2023-01-31T17:52:20;97292.03;;;0.81;100.00
45731;BME280;31440;48.584;13.460;2023-01-31T17:55:24;97292.94;;;0.84;100.00
45731;BME280;31440;48.584;13.460;2023-01-31T17:58:29;97299.72;;;0.81;100.00
45731;BME280;31440;48.584;13.460;2023-01-31T18:01:35;97264.50;;;0.44;100.00
45731;BME280;31440;48.584;13.460;2023-01-31T18:04:40;97292.06;;;0.82;100.00
45731;BME280;31440;48.584;13.460;2023-01-31T18:07:48;97273.34;;;0.95;100.00
45731;BME280;31440;48.584;13.460;2023-01-31T18:10:53;97285.19;;;0.78;100.00
45731;BME280;31440;48.584;13.460;2023-01-31T18:13:58;97282.03;;;1.20;100.00
45731;BME280;31440;48.584;13.460;2023-01-31T18:17:03;97277.84;;;1.43;100.00
45731;BME280;31440;48.584;13.460;2023-01-31T18:20:08;97272.50;;;0.96;100.00
45731;BME280;31440;48.584;13.460;2023-01-31T18:23:13;97267.56;;;1.31;100.00
45731;BME280;31440;48.584;13.460;2023-01-31T18:26:18;97275.25;;;1.33;100.00
45731;BME280;31440;48.584;13.460;2023-01-31T18:32:31;97298.09;;;0.95;100.00
45731;BME280;31440;48.584;13.460;2023-01-31T18:35:35;97303.06;;;0.72;100.00
45731;BME280;31440;48.584;13.460;2023-01-31T18:38:41;97290.13;;;0.54;100.00
45731;BME280;31440;48.584;13.460;2023-01-31T18:41:47;97297.84;;;0.58;100.00
45731;BME280;31440;48.584;13.460;2023-01-31T18:44:51;97303.81;;;0.59;100.00
45731;BME280;31440;48.584;13.460;2023-01-31T18:47:56;97299.63;;;0.70;100.00
45731;BME280;31440;48.584;13.460;2023-01-31T18:51:02;97294.50;;;0.70;100.00
45731;BME280;31440;48.584;13.460;2023-01-31T18:57:16;97309.66;;;0.42;100.00
45731;BME280;31440;48.584;13.460;2023-01-31T19:00:20;97310.28;;;0.17;100.00
45731;BME280;31440;48.584;13.460;2023-01-31T19:03:25;97296.69;;;0.20;100.00
45731;BME280;31440;48.584;13.460;2023-01-31T19:06:35;97309.47;;;0.21;100.00
45731;BME280;31440;48.584;13.460;2023-01-31T19:09:40;97303.53;;;0.24;100.00
45731;BME280;31440;48.584;13.460;2023-01-31T19:12:46;97253.09;;;0.07;100.00
45731;BME280;31440;48.584;13.460;2023-01-31T19:15:51;97295.91;;;0.28;100.00
45731;BME280;31440;48.584;13.460;2023-01-31T19:18:55;97298.31;;;0.12;100.00